createdAt,value
2023-04-22T00:00:19.422Z,18.98
2023-04-22T00:02:46.883Z,19.00
2023-04-22T00:05:16.662Z,18.77
2023-04-22T00:07:46.742Z,19.27
2023-04-22T00:10:13.991Z,20.63
2023-04-22T00:12:41.094Z,19.45
2023-04-22T00:15:09.064Z,18.88
2023-04-22T00:17:36.525Z,19.13
2023-04-22T00:20:04.849Z,19.98
2023-04-22T00:22:32.093Z,21.48
2023-04-22T00:24:59.241Z,19.63
2023-04-22T00:27:26.367Z,18.90
2023-04-22T00:29:53.500Z,17.17
2023-04-22T00:32:22.695Z,19.02
2023-04-22T00:34:50.450Z,16.85
2023-04-22T00:37:17.781Z,17.73
2023-04-22T00:39:45.009Z,19.45
2023-04-22T00:42:13.720Z,16.23
2023-04-22T00:44:42.481Z,19.75
2023-04-22T00:47:10.294Z,21.58
2023-04-22T00:49:37.986Z,17.88
2023-04-22T00:52:05.769Z,18.02
2023-04-22T00:54:35.678Z,18.20
2023-04-22T00:57:05.384Z,17.20
2023-04-22T00:59:32.816Z,17.55
2023-04-22T01:02:00.629Z,18.98
2023-04-22T01:04:28.202Z,18.50
2023-04-22T01:06:55.600Z,18.95
2023-04-22T01:09:23.124Z,20.30
2023-04-22T01:11:50.677Z,19.45
2023-04-22T01:14:18.160Z,19.33
2023-04-22T01:16:46.455Z,20.17
2023-04-22T01:19:14.257Z,19.40
2023-04-22T01:21:45.155Z,16.38
2023-04-22T01:24:12.698Z,17.02
2023-04-22T01:26:40.293Z,17.75
2023-04-22T01:29:07.632Z,17.67
2023-04-22T01:31:35.265Z,17.52
2023-04-22T01:34:02.653Z,18.23
2023-04-22T01:36:29.841Z,18.23
2023-04-22T01:38:57.063Z,17.95
2023-04-22T01:41:27.212Z,17.83
2023-04-22T01:43:57.848Z,17.58
2023-04-22T01:46:25.226Z,20.67
2023-04-22T01:48:52.554Z,23.23
2023-04-22T01:51:22.064Z,18.83
2023-04-22T01:53:50.405Z,17.55
2023-04-22T01:56:18.055Z,18.35
2023-04-22T01:58:45.299Z,18.65
2023-04-22T02:01:13.681Z,17.65
2023-04-22T02:03:41.237Z,18.15
2023-04-22T02:06:08.587Z,20.00
2023-04-22T02:08:36.269Z,19.35
2023-04-22T02:11:03.414Z,19.30
2023-04-22T02:13:41.013Z,16.98
2023-04-22T02:16:08.728Z,17.88
2023-04-22T02:18:36.064Z,16.33
2023-04-22T02:21:03.446Z,19.20
2023-04-22T02:23:31.240Z,17.80
2023-04-22T02:25:58.377Z,20.52
2023-04-22T02:28:25.687Z,19.08
2023-04-22T02:30:52.931Z,18.40
2023-04-22T02:33:21.479Z,18.10
2023-04-22T02:35:48.633Z,20.15
2023-04-22T02:38:19.919Z,18.23
2023-04-22T02:40:47.172Z,20.08
2023-04-22T02:43:14.586Z,20.70
2023-04-22T02:45:41.808Z,19.50
2023-04-22T02:48:09.243Z,21.17
2023-04-22T02:50:36.697Z,15.57
2023-04-22T02:53:03.979Z,18.02
2023-04-22T02:55:31.112Z,18.58
2023-04-22T02:57:58.316Z,20.00
2023-04-22T03:00:25.694Z,20.25
2023-04-22T03:02:53.573Z,20.15
2023-04-22T03:05:25.591Z,17.38
2023-04-22T03:07:54.025Z,17.85
2023-04-22T03:10:21.856Z,17.45
2023-04-22T03:12:49.233Z,21.05
2023-04-22T03:15:19.606Z,19.15
2023-04-22T03:17:48.468Z,18.83
2023-04-22T03:20:17.132Z,17.33
2023-04-22T03:22:44.342Z,19.63
2023-04-22T03:25:13.359Z,20.63
2023-04-22T03:30:12.288Z,17.05
2023-04-22T03:32:39.501Z,19.27
2023-04-22T03:35:17.267Z,18.23
2023-04-22T03:37:47.123Z,18.63
2023-04-22T03:40:18.951Z,17.42
2023-04-22T03:42:46.147Z,18.92
2023-04-22T03:45:14.077Z,18.58
2023-04-22T03:47:45.804Z,17.10
2023-04-22T03:50:22.066Z,17.83
2023-04-22T03:52:51.776Z,17.23
2023-04-22T03:55:21.446Z,15.52
2023-04-22T03:57:51.111Z,16.63
2023-04-22T04:00:18.382Z,18.52
2023-04-22T04:02:53.024Z,16.65
2023-04-22T04:07:52.027Z,14.93
2023-04-22T04:10:19.124Z,18.75
2023-04-22T04:12:46.296Z,16.92
2023-04-22T04:15:13.439Z,16.50
2023-04-22T04:17:40.869Z,16.77
2023-04-22T04:20:08.923Z,16.73
2023-04-22T04:22:37.729Z,15.65
2023-04-22T04:25:07.026Z,15.48
2023-04-22T04:27:39.526Z,17.73
2023-04-22T04:30:08.002Z,16.88
2023-04-22T04:32:51.434Z,15.07
2023-04-22T04:35:20.376Z,16.02
2023-04-22T04:37:53.862Z,16.50
2023-04-22T04:40:22.019Z,17.23
2023-04-22T04:42:57.547Z,15.50
2023-04-22T04:45:30.146Z,16.65
2023-04-22T04:47:58.563Z,15.55
2023-04-22T04:50:32.116Z,15.77
2023-04-22T04:53:02.465Z,16.30
2023-04-22T04:55:38.116Z,17.15
2023-04-22T04:58:10.807Z,19.35
2023-04-22T05:00:38.088Z,17.25
2023-04-22T05:03:05.600Z,19.02
2023-04-22T05:05:34.054Z,18.17
2023-04-22T05:08:01.320Z,15.65
2023-04-22T05:10:29.305Z,15.55
2023-04-22T05:12:57.725Z,16.52
2023-04-22T05:15:26.875Z,14.98
2023-04-22T05:17:54.521Z,15.38
2023-04-22T05:20:21.789Z,17.17
2023-04-22T05:22:48.940Z,16.15
2023-04-22T05:25:17.336Z,15.70
2023-04-22T05:27:53.779Z,15.23
2023-04-22T05:30:21.005Z,17.20
2023-04-22T05:32:48.578Z,17.40
2023-04-22T05:35:15.812Z,15.15
2023-04-22T05:37:43.032Z,16.80
2023-04-22T05:40:11.375Z,16.45
2023-04-22T05:42:38.561Z,19.38
2023-04-22T05:45:06.268Z,17.42
2023-04-22T05:47:33.524Z,17.60
2023-04-22T05:50:01.138Z,18.23
2023-04-22T05:52:34.600Z,18.50
2023-04-22T05:55:08.081Z,20.27
2023-04-22T05:57:35.320Z,20.60
2023-04-22T06:00:06.276Z,19.38
2023-04-22T06:02:41.040Z,22.75
2023-04-22T06:05:09.342Z,19.30
2023-04-22T06:07:36.752Z,18.17
2023-04-22T06:10:07.273Z,19.67
2023-04-22T06:12:36.381Z,18.88
2023-04-22T06:15:04.824Z,18.85
2023-04-22T06:17:32.268Z,19.50
2023-04-22T06:19:59.551Z,18.73
2023-04-22T06:22:26.714Z,21.35
2023-04-22T06:24:53.912Z,22.05
2023-04-22T06:27:20.987Z,22.88
2023-04-22T06:29:48.271Z,27.27
2023-04-22T06:32:15.412Z,24.63
2023-04-22T06:34:43.033Z,20.95
2023-04-22T06:37:10.248Z,24.75
2023-04-22T06:39:38.255Z,21.85
2023-04-22T06:42:25.502Z,20.92
2023-04-22T06:45:12.950Z,20.38
2023-04-22T06:47:56.119Z,21.10
2023-04-22T06:50:30.854Z,20.17
2023-04-22T06:52:59.143Z,21.77
2023-04-22T06:55:26.743Z,24.40
2023-04-22T06:57:54.178Z,24.67
2023-04-22T07:00:21.332Z,24.05
2023-04-22T07:02:48.661Z,24.90
2023-04-22T07:05:16.455Z,28.95
2023-04-22T07:07:44.654Z,26.45
2023-04-22T07:10:17.741Z,26.83
2023-04-22T07:13:04.907Z,29.92
2023-04-22T07:15:32.174Z,26.95
2023-04-22T07:17:59.498Z,31.13
2023-04-22T07:20:26.777Z,25.85
2023-04-22T07:22:53.890Z,30.30
2023-04-22T07:25:21.201Z,30.55
2023-04-22T07:27:48.411Z,29.80
2023-04-22T07:30:15.800Z,28.02
2023-04-22T07:32:43.083Z,25.40
2023-04-22T07:35:10.389Z,28.65
2023-04-22T07:37:37.622Z,30.17
2023-04-22T07:40:06.042Z,34.15
2023-04-22T07:42:33.257Z,30.83
2023-04-22T07:45:00.533Z,29.17
2023-04-22T07:47:27.761Z,29.58
2023-04-22T07:49:54.886Z,35.30
2023-04-22T07:52:22.261Z,33.80
2023-04-22T07:54:51.027Z,33.25
2023-04-22T07:57:21.790Z,32.10
2023-04-22T07:59:52.467Z,31.83
2023-04-22T08:02:20.140Z,31.33
2023-04-22T08:04:47.425Z,30.35
2023-04-22T08:07:30.914Z,34.25
2023-04-22T08:10:00.064Z,36.15
2023-04-22T08:12:27.510Z,34.97
2023-04-22T08:14:54.692Z,32.40
2023-04-22T08:17:22.926Z,29.63
2023-04-22T08:19:50.223Z,25.33
2023-04-22T08:22:18.648Z,24.40
2023-04-22T08:24:45.897Z,27.38
2023-04-22T08:27:13.178Z,25.73
2023-04-22T08:29:40.859Z,25.73
2023-04-22T08:32:08.238Z,23.90
2023-04-22T08:34:36.628Z,22.70
2023-04-22T08:37:04.444Z,19.58
2023-04-22T08:39:31.750Z,22.60
2023-04-22T08:41:59.040Z,22.48
2023-04-22T08:44:26.993Z,20.85
2023-04-22T08:46:55.994Z,20.77
2023-04-22T08:49:25.508Z,20.33
2023-04-22T08:51:54.238Z,21.52
2023-04-22T08:54:21.538Z,18.60
2023-04-22T08:56:50.775Z,18.23
2023-04-22T08:59:18.866Z,23.25
2023-04-22T09:01:51.374Z,18.75
2023-04-22T09:04:19.850Z,17.75
2023-04-22T09:06:47.232Z,21.05
2023-04-22T09:09:14.815Z,17.13
2023-04-22T09:11:42.244Z,16.38
2023-04-22T09:14:09.487Z,15.85
2023-04-22T09:16:44.969Z,16.20
2023-04-22T09:19:13.322Z,14.65
2023-04-22T09:21:41.664Z,13.13
2023-04-22T09:24:10.994Z,15.80
2023-04-22T09:26:42.598Z,13.02
2023-04-22T09:29:15.107Z,15.02
2023-04-22T09:31:42.713Z,13.70
2023-04-22T09:34:09.949Z,13.90
2023-04-22T09:36:40.745Z,12.73
2023-04-22T09:39:08.824Z,12.07
2023-04-22T09:41:38.832Z,12.10
2023-04-22T09:44:13.940Z,11.70
2023-04-22T09:46:43.783Z,12.27
2023-04-22T09:49:11.481Z,10.68
2023-04-22T09:51:42.634Z,12.13
2023-04-22T09:54:11.648Z,10.80
2023-04-22T09:56:48.837Z,11.57
2023-04-22T09:59:22.844Z,11.52
2023-04-22T10:01:53.609Z,10.73
2023-04-22T10:04:21.736Z,10.85
2023-04-22T10:06:49.792Z,10.85
2023-04-22T10:09:22.454Z,13.48
2023-04-22T10:11:54.106Z,11.30
2023-04-22T10:14:25.835Z,10.85
2023-04-22T10:16:57.629Z,11.90
2023-04-22T10:19:28.278Z,11.80
2023-04-22T10:22:02.679Z,12.55
2023-04-22T10:24:36.158Z,11.57
2023-04-22T10:27:08.619Z,10.98
2023-04-22T10:29:40.931Z,14.48
2023-04-22T10:32:17.221Z,12.95
2023-04-22T10:34:47.142Z,12.98
2023-04-22T10:37:18.468Z,13.32
2023-04-22T10:40:10.320Z,15.73
2023-04-22T10:42:40.037Z,14.73
2023-04-22T10:45:07.756Z,12.10
2023-04-22T10:47:36.658Z,11.27
2023-04-22T10:50:26.913Z,11.20
2023-04-22T10:53:21.846Z,9.73
2023-04-22T10:55:51.847Z,10.20
2023-04-22T10:58:21.207Z,11.48
2023-04-22T11:00:54.378Z,10.00
2023-04-22T11:03:28.338Z,11.43
2023-04-22T11:06:16.178Z,10.05
2023-04-22T11:08:48.317Z,11.93
2023-04-22T11:11:18.640Z,10.27
2023-04-22T11:13:50.570Z,10.18
2023-04-22T11:18:50.098Z,10.20
2023-04-22T11:21:18.120Z,10.68
2023-04-22T11:23:53.035Z,8.02
2023-04-22T11:26:34.303Z,7.93
2023-04-22T11:29:01.621Z,9.18
2023-04-22T11:31:28.981Z,7.70
2023-04-22T11:33:59.781Z,11.25
2023-04-22T11:36:27.718Z,8.45
2023-04-22T11:38:58.356Z,7.60
2023-04-22T11:41:25.673Z,8.77
2023-04-22T11:43:54.886Z,7.95
2023-04-22T11:46:30.343Z,7.40
2023-04-22T11:49:16.208Z,8.77
2023-04-22T11:51:57.277Z,8.18
2023-04-22T11:54:35.566Z,7.60
2023-04-22T11:57:15.722Z,6.32
2023-04-22T11:59:43.697Z,5.75
2023-04-22T12:02:13.128Z,4.55
2023-04-22T12:04:41.290Z,4.43
2023-04-22T12:07:08.562Z,5.30
2023-04-22T12:09:35.710Z,6.05
2023-04-22T12:12:06.072Z,6.45
2023-04-22T12:14:35.791Z,5.82
2023-04-22T12:17:09.496Z,7.80
2023-04-22T12:19:37.877Z,7.60
2023-04-22T12:22:05.604Z,6.47
2023-04-22T12:24:32.939Z,7.93
2023-04-22T12:27:00.188Z,6.65
2023-04-22T12:29:30.615Z,7.68
2023-04-22T12:31:57.778Z,6.57
2023-04-22T12:34:25.075Z,6.65
2023-04-22T12:36:52.399Z,6.88
2023-04-22T12:39:19.921Z,6.53
2023-04-22T12:41:50.955Z,6.57
2023-04-22T12:44:18.255Z,5.35
2023-04-22T12:46:46.733Z,5.90
2023-04-22T12:49:14.597Z,7.03
2023-04-22T12:51:41.767Z,6.80
2023-04-22T12:54:09.041Z,6.38
2023-04-22T12:56:36.304Z,7.00
2023-04-22T12:59:03.666Z,6.50
2023-04-22T13:01:32.107Z,7.80
2023-04-22T13:04:00.112Z,6.65
2023-04-22T13:06:29.054Z,7.63
2023-04-22T13:08:56.143Z,8.23
2023-04-22T13:11:24.753Z,7.63
2023-04-22T13:13:52.298Z,7.18
2023-04-22T13:16:19.711Z,8.23
2023-04-22T13:18:46.897Z,8.38
2023-04-22T13:21:15.297Z,7.65
2023-04-22T13:23:43.531Z,8.93
2023-04-22T13:26:12.060Z,8.85
2023-04-22T13:28:39.443Z,10.18
2023-04-22T13:31:06.780Z,9.75
2023-04-22T13:33:34.243Z,8.82
2023-04-22T13:36:01.420Z,8.50
2023-04-22T13:38:28.736Z,8.13
2023-04-22T13:40:55.918Z,9.05
2023-04-22T13:43:23.346Z,8.75
2023-04-22T13:45:50.825Z,8.43
2023-04-22T13:48:18.089Z,9.45
2023-04-22T13:50:45.739Z,6.90
2023-04-22T13:53:14.147Z,9.13
2023-04-22T13:55:43.344Z,9.05
2023-04-22T13:58:11.172Z,10.20
2023-04-22T14:00:38.442Z,8.63
2023-04-22T14:03:06.129Z,9.52
2023-04-22T14:05:33.352Z,9.13
2023-04-22T14:08:01.176Z,8.40
2023-04-22T14:10:28.786Z,9.10
2023-04-22T14:12:56.159Z,9.43
2023-04-22T14:15:24.217Z,7.55
2023-04-22T14:17:51.503Z,9.02
2023-04-22T14:20:18.773Z,7.88
2023-04-22T14:22:46.475Z,10.10
2023-04-22T14:25:13.726Z,8.80
2023-04-22T14:27:41.063Z,8.90
2023-04-22T14:30:08.744Z,9.20
2023-04-22T14:32:36.367Z,8.82
2023-04-22T14:35:03.805Z,9.80
2023-04-22T14:37:32.154Z,8.85
2023-04-22T14:39:59.535Z,10.27
2023-04-22T14:42:27.320Z,10.05
2023-04-22T14:44:54.655Z,8.30
2023-04-22T14:47:22.096Z,10.75
2023-04-22T14:49:49.377Z,8.50
2023-04-22T14:52:16.847Z,10.23
2023-04-22T14:54:44.069Z,8.43
2023-04-22T14:57:12.442Z,8.45
2023-04-22T14:59:39.879Z,8.32
2023-04-22T15:02:15.610Z,9.45
2023-04-22T15:04:45.925Z,8.82
2023-04-22T15:07:13.132Z,8.75
2023-04-22T15:09:40.639Z,8.13
2023-04-22T15:12:08.151Z,9.60
2023-04-22T15:14:36.522Z,7.85
2023-04-22T15:17:05.111Z,9.10
2023-04-22T15:19:32.462Z,6.78
2023-04-22T15:21:59.787Z,5.82
2023-04-22T15:24:27.057Z,6.70
2023-04-22T15:26:54.967Z,7.05
2023-04-22T15:29:22.541Z,6.05
2023-04-22T15:31:50.816Z,5.57
2023-04-22T15:34:20.270Z,5.25
2023-04-22T15:36:47.694Z,6.07
2023-04-22T15:39:15.242Z,5.50
2023-04-22T15:41:43.691Z,5.47
2023-04-22T15:44:12.964Z,5.88
2023-04-22T15:46:40.579Z,5.30
2023-04-22T15:49:08.065Z,5.95
2023-04-22T15:51:35.885Z,7.10
2023-04-22T15:54:03.936Z,5.05
2023-04-22T15:56:33.082Z,5.32
2023-04-22T15:59:00.297Z,4.75
2023-04-22T16:01:27.559Z,5.22
2023-04-22T16:03:55.160Z,5.05
2023-04-22T16:06:22.745Z,4.78
2023-04-22T16:08:49.882Z,4.60
2023-04-22T16:11:17.016Z,4.43
2023-04-22T16:13:44.656Z,4.65
2023-04-22T16:16:12.098Z,4.03
2023-04-22T16:18:40.487Z,4.70
2023-04-22T16:21:10.630Z,4.90
2023-04-22T16:23:38.147Z,4.63
2023-04-22T16:26:06.476Z,5.72
2023-04-22T16:28:33.656Z,5.05
2023-04-22T16:31:00.891Z,4.75
2023-04-22T16:33:28.746Z,4.55
2023-04-22T16:35:57.088Z,4.40
2023-04-22T16:38:24.229Z,5.93
2023-04-22T16:40:54.169Z,4.60
2023-04-22T16:43:21.379Z,5.82
2023-04-22T16:45:48.988Z,5.00
2023-04-22T16:48:16.306Z,4.32
2023-04-22T16:50:43.503Z,4.95
2023-04-22T16:53:12.012Z,4.63
2023-04-22T16:55:39.174Z,4.18
2023-04-22T16:58:06.513Z,4.70
2023-04-22T17:00:33.897Z,4.50
2023-04-22T17:03:01.333Z,5.97
2023-04-22T17:05:28.778Z,6.82
2023-04-22T17:07:55.955Z,6.30
2023-04-22T17:10:23.080Z,5.20
2023-04-22T17:12:53.024Z,4.47
2023-04-22T17:15:20.764Z,4.28
2023-04-22T17:17:48.054Z,6.15
2023-04-22T17:20:15.526Z,6.47
2023-04-22T17:22:42.711Z,4.85
2023-04-22T17:25:10.054Z,4.63
2023-04-22T17:27:37.355Z,4.40
2023-04-22T17:30:05.036Z,4.65
2023-04-22T17:32:32.238Z,4.72
2023-04-22T17:34:59.676Z,4.03
2023-04-22T17:37:27.017Z,4.93
2023-04-22T17:39:56.431Z,4.00
2023-04-22T17:42:27.202Z,4.47
2023-04-22T17:44:59.639Z,4.68
2023-04-22T17:47:26.954Z,4.25
2023-04-22T17:49:54.280Z,3.50
2023-04-22T17:52:22.407Z,3.25
2023-04-22T17:54:49.687Z,3.85
2023-04-22T17:57:16.986Z,4.25
2023-04-22T17:59:44.310Z,3.10
2023-04-22T18:02:12.484Z,3.53
2023-04-22T18:04:39.698Z,4.07
2023-04-22T18:07:07.033Z,3.90
2023-04-22T18:09:34.268Z,3.40
2023-04-22T18:12:01.855Z,3.83
2023-04-22T18:14:29.197Z,4.03
2023-04-22T18:16:56.503Z,2.70
2023-04-22T18:19:23.825Z,2.97
2023-04-22T18:21:59.617Z,4.60
2023-04-22T18:24:28.478Z,3.60
2023-04-22T18:26:55.787Z,2.78
2023-04-22T18:29:23.243Z,3.13
2023-04-22T18:31:50.894Z,3.72
2023-04-22T18:34:18.352Z,3.13
2023-04-22T18:36:45.732Z,3.63
2023-04-22T18:39:12.989Z,3.25
2023-04-22T18:41:41.130Z,2.80
2023-04-22T18:44:08.425Z,3.47
2023-04-22T18:46:35.733Z,3.42
2023-04-22T18:49:03.101Z,3.60
2023-04-22T18:51:30.814Z,3.60
2023-04-22T18:53:58.405Z,3.05
2023-04-22T18:56:25.734Z,3.55
2023-04-22T18:58:53.046Z,4.10
2023-04-22T19:01:20.316Z,4.30
2023-04-22T19:03:47.807Z,3.90
2023-04-22T19:06:15.307Z,4.18
2023-04-22T19:08:42.746Z,3.88
2023-04-22T19:11:10.120Z,3.63
2023-04-22T19:13:37.349Z,3.83
2023-04-22T19:16:04.725Z,4.85
2023-04-22T19:18:32.425Z,4.13
2023-04-22T19:20:59.908Z,4.80
2023-04-22T19:23:27.789Z,5.05
2023-04-22T19:25:55.432Z,4.13
2023-04-22T19:28:22.685Z,4.47
2023-04-22T19:30:50.023Z,4.80
2023-04-22T19:33:17.899Z,4.13
2023-04-22T19:35:45.877Z,5.78
2023-04-22T19:38:16.396Z,5.65
2023-04-22T19:40:43.590Z,6.20
2023-04-22T19:43:10.896Z,6.13
2023-04-22T19:45:38.020Z,7.25
2023-04-22T19:48:05.882Z,7.50
2023-04-22T19:50:34.441Z,6.80
2023-04-22T19:53:05.420Z,8.30
2023-04-22T19:55:36.688Z,7.20
2023-04-22T19:58:04.505Z,5.97
2023-04-22T20:00:35.407Z,5.93
2023-04-22T20:03:03.337Z,6.60
2023-04-22T20:05:30.915Z,6.85
2023-04-22T20:07:58.743Z,7.22
2023-04-22T20:10:26.768Z,7.47
2023-04-22T20:12:54.328Z,8.05
2023-04-22T20:15:21.842Z,8.88
2023-04-22T20:17:49.628Z,8.07
2023-04-22T20:20:17.667Z,6.78
2023-04-22T20:22:45.971Z,7.40
2023-04-22T20:25:14.960Z,7.18
2023-04-22T20:27:42.846Z,7.95
2023-04-22T20:30:11.345Z,8.20
2023-04-22T20:32:38.607Z,11.70
2023-04-22T20:35:15.021Z,9.60
2023-04-22T20:37:44.676Z,9.15
2023-04-22T20:40:15.280Z,11.27
2023-04-22T20:42:42.588Z,9.70
2023-04-22T20:45:15.075Z,10.60
2023-04-22T20:47:42.814Z,11.10
2023-04-22T20:50:10.720Z,9.25
2023-04-22T20:52:37.901Z,9.70
2023-04-22T20:55:06.599Z,10.05
2023-04-22T20:57:33.860Z,8.82
2023-04-22T21:00:01.560Z,8.75
2023-04-22T21:02:31.373Z,11.88
2023-04-22T21:05:00.535Z,10.45
2023-04-22T21:07:30.796Z,10.25
2023-04-22T21:09:58.386Z,9.48
2023-04-22T21:12:25.918Z,9.90
2023-04-22T21:14:53.543Z,9.95
2023-04-22T21:17:28.253Z,14.10
2023-04-22T21:19:57.861Z,11.70
2023-04-22T21:22:25.655Z,11.95
2023-04-22T21:24:54.370Z,13.80
2023-04-22T21:27:22.493Z,12.57
2023-04-22T21:29:50.151Z,14.88
2023-04-22T21:32:20.229Z,13.95
2023-04-22T21:34:47.623Z,13.90
2023-04-22T21:37:14.981Z,16.55
2023-04-22T21:39:42.466Z,15.82
2023-04-22T21:42:09.639Z,17.85
2023-04-22T21:44:38.210Z,15.82
2023-04-22T21:47:06.449Z,15.30
2023-04-22T21:49:33.740Z,13.68
2023-04-22T21:52:01.357Z,14.43
2023-04-22T21:54:28.553Z,14.70
2023-04-22T21:56:57.015Z,15.32
2023-04-22T21:59:24.848Z,17.45
2023-04-22T22:01:52.431Z,14.07
2023-04-22T22:04:20.175Z,13.60
2023-04-22T22:06:47.536Z,13.55
2023-04-22T22:09:14.812Z,16.05
2023-04-22T22:11:42.078Z,13.80
2023-04-22T22:14:09.202Z,13.18
2023-04-22T22:16:38.428Z,13.20
2023-04-22T22:19:06.475Z,10.80
2023-04-22T22:21:33.909Z,11.95
2023-04-22T22:24:01.109Z,12.18
2023-04-22T22:26:29.234Z,14.10
2023-04-22T22:28:56.635Z,11.73
2023-04-22T22:31:23.857Z,12.23
2023-04-22T22:33:51.069Z,14.18
2023-04-22T22:36:19.147Z,11.48
2023-04-22T22:38:46.478Z,10.40
2023-04-22T22:41:14.135Z,9.35
2023-04-22T22:43:41.315Z,10.38
2023-04-22T22:46:08.817Z,12.35
2023-04-22T22:48:36.283Z,9.75
2023-04-22T22:51:03.642Z,10.05
2023-04-22T22:53:36.368Z,8.27
2023-04-22T22:56:03.887Z,7.15
2023-04-22T22:58:33.910Z,7.03
2023-04-22T23:01:01.247Z,6.60
2023-04-22T23:03:28.591Z,6.05
2023-04-22T23:05:56.001Z,6.57
2023-04-22T23:08:23.406Z,4.45
2023-04-22T23:10:50.729Z,4.30
2023-04-22T23:13:18.060Z,4.20
2023-04-22T23:15:45.400Z,4.05
2023-04-22T23:18:16.347Z,3.70
2023-04-22T23:20:44.227Z,3.38
2023-04-22T23:23:15.752Z,4.65
2023-04-22T23:25:43.212Z,3.70
2023-04-22T23:28:10.757Z,3.42
2023-04-22T23:30:38.236Z,2.75
2023-04-22T23:33:07.206Z,3.03
2023-04-22T23:35:36.514Z,2.78
2023-04-22T23:38:04.721Z,2.60
2023-04-22T23:40:32.144Z,2.30
2023-04-22T23:42:59.332Z,2.35
2023-04-22T23:45:26.588Z,1.92
2023-04-22T23:47:53.928Z,1.85
2023-04-22T23:50:21.421Z,1.67
2023-04-22T23:52:48.601Z,1.42
2023-04-22T23:55:16.331Z,1.45
2023-04-22T23:57:44.015Z,1.75
